KTCM/TCM METAR and TAF weather

Enter ICAO airport designator
Station Type Date Time Source
KTCM METAR 2019/08/23 14:58 UTC NOAA

KTCM 231458Z 00000KT 10SM FEW100 BKN200 12/11 A3001 RMK SLP161 WND DATA ESTMD 52004 $


Station Type Date Time Source
KTCM Decoded METAR 2019/08/23 14:58 UTC NOAA

Station name not available
Aug 23, 2019 - 10:58 AM EDT / 2019.08.23 1458 UTC
Wind: Calm:0
Visibility: 10 mile(s):0
Sky conditions: mostly cloudy
Temperature: 53 F (12 C)
Dew Point: 51 F (11 C)
Relative Humidity: 93%
Pressure (altimeter): 30.01 in. Hg (1016 hPa)
Pressure tendency: 0.01 inches (0.4 hPa) higher than three hours ago
ob: KTCM 231458Z 00000KT 10SM FEW100 BKN200 12/11 A3001 RMK SLP161 WND DATA ESTMD 52004
cycle: 15

Station Type Date Time Source
KTCM TAF 2019/08/23 13:04 UTC NOAA

TAF KTCM 231300Z 2313/2419 VRB06KT 9999 SKC QNH2998INS
BECMG 2320/2321 34009KT 9999 SCT100 QNH2989INS
BECMG 2405/2406 26006KT 9999 BKN100 QNH2991INS TX24/2323Z TN08/2314Z

Example: see airport list